sensor_id;sensor_type;location;lat;lon;timestamp;pressure;altitude;pressure_sealevel;temperature;humidity
52249;BME280;38541;48.130;8.378;2023-01-31T00:01:17;93560.16;;;0.82;78.03
52249;BME280;38541;48.130;8.378;2023-01-31T00:03:44;93566.13;;;0.83;78.07
52249;BME280;38541;48.130;8.378;2023-01-31T00:06:35;93554.72;;;0.77;77.10
52249;BME280;38541;48.130;8.378;2023-01-31T00:09:04;93556.69;;;0.75;77.33
52249;BME280;38541;48.130;8.378;2023-01-31T00:11:31;93560.00;;;0.69;77.05
52249;BME280;38541;48.130;8.378;2023-01-31T00:13:59;93553.78;;;0.63;77.20
52249;BME280;38541;48.130;8.378;2023-01-31T00:16:26;93551.19;;;0.63;77.55
52249;BME280;38541;48.130;8.378;2023-01-31T00:18:53;93543.97;;;0.59;77.63
52249;BME280;38541;48.130;8.378;2023-01-31T00:21:22;93547.97;;;0.61;77.23
52249;BME280;38541;48.130;8.378;2023-01-31T00:23:50;93549.13;;;0.59;77.73
52249;BME280;38541;48.130;8.378;2023-01-31T00:26:21;93545.94;;;0.56;77.91
52249;BME280;38541;48.130;8.378;2023-01-31T00:28:49;93542.19;;;0.59;77.47
52249;BME280;38541;48.130;8.378;2023-01-31T00:31:18;93538.63;;;0.60;77.23
52249;BME280;38541;48.130;8.378;2023-01-31T00:33:48;93538.88;;;0.65;77.86
52249;BME280;38541;48.130;8.378;2023-01-31T00:36:17;93538.06;;;0.65;77.26
52249;BME280;38541;48.130;8.378;2023-01-31T00:38:47;93535.31;;;0.66;77.46
52249;BME280;38541;48.130;8.378;2023-01-31T00:41:14;93533.34;;;0.68;77.43
52249;BME280;38541;48.130;8.378;2023-01-31T00:43:40;93530.75;;;0.68;76.81
52249;BME280;38541;48.130;8.378;2023-01-31T00:46:08;93533.53;;;0.67;76.99
52249;BME280;38541;48.130;8.378;2023-01-31T00:48:35;93530.13;;;0.66;77.04
52249;BME280;38541;48.130;8.378;2023-01-31T00:51:02;93526.72;;;0.66;77.15
52249;BME280;38541;48.130;8.378;2023-01-31T00:53:29;93531.56;;;0.54;77.31
52249;BME280;38541;48.130;8.378;2023-01-31T00:56:02;93531.31;;;0.49;77.51
52249;BME280;38541;48.130;8.378;2023-01-31T00:58:29;93523.72;;;0.47;77.42
52249;BME280;38541;48.130;8.378;2023-01-31T01:00:55;93519.53;;;0.46;77.94
52249;BME280;38541;48.130;8.378;2023-01-31T01:03:22;93521.13;;;0.47;77.64
52249;BME280;38541;48.130;8.378;2023-01-31T01:05:48;93515.63;;;0.50;77.91
52249;BME280;38541;48.130;8.378;2023-01-31T01:08:15;93510.19;;;0.45;77.24
52249;BME280;38541;48.130;8.378;2023-01-31T01:10:43;93506.91;;;0.51;77.74
52249;BME280;38541;48.130;8.378;2023-01-31T01:13:09;93505.47;;;0.49;77.46
52249;BME280;38541;48.130;8.378;2023-01-31T01:15:37;93503.94;;;0.54;77.51
52249;BME280;38541;48.130;8.378;2023-01-31T01:18:04;93507.31;;;0.55;77.04
52249;BME280;38541;48.130;8.378;2023-01-31T01:20:31;93509.13;;;0.54;77.11
52249;BME280;38541;48.130;8.378;2023-01-31T01:22:58;93521.06;;;0.55;76.88
52249;BME280;38541;48.130;8.378;2023-01-31T01:25:24;93516.50;;;0.57;77.05
52249;BME280;38541;48.130;8.378;2023-01-31T01:27:51;93514.72;;;0.58;76.69
52249;BME280;38541;48.130;8.378;2023-01-31T01:30:17;93517.50;;;0.56;76.63
52249;BME280;38541;48.130;8.378;2023-01-31T01:32:43;93514.03;;;0.49;76.53
52249;BME280;38541;48.130;8.378;2023-01-31T01:35:10;93517.59;;;0.48;76.64
52249;BME280;38541;48.130;8.378;2023-01-31T01:37:36;93518.56;;;0.47;76.84
52249;BME280;38541;48.130;8.378;2023-01-31T01:40:03;93515.97;;;0.47;76.89
52249;BME280;38541;48.130;8.378;2023-01-31T01:42:33;93511.97;;;0.45;76.58
52249;BME280;38541;48.130;8.378;2023-01-31T01:45:02;93503.78;;;0.41;76.81
52249;BME280;38541;48.130;8.378;2023-01-31T01:47:39;93493.47;;;0.26;77.03
52249;BME280;38541;48.130;8.378;2023-01-31T01:52:55;93497.47;;;0.28;76.74
52249;BME280;38541;48.130;8.378;2023-01-31T01:58:01;93501.00;;;0.27;77.34
52249;BME280;38541;48.130;8.378;2023-01-31T02:00:30;93500.75;;;0.22;76.92
52249;BME280;38541;48.130;8.378;2023-01-31T02:02:59;93498.00;;;0.24;76.90
52249;BME280;38541;48.130;8.378;2023-01-31T02:05:30;93500.75;;;0.22;76.85
52249;BME280;38541;48.130;8.378;2023-01-31T02:07:59;93513.78;;;0.14;76.92
52249;BME280;38541;48.130;8.378;2023-01-31T02:13:05;93511.28;;;0.06;77.95
52249;BME280;38541;48.130;8.378;2023-01-31T02:15:32;93511.28;;;0.06;77.36
52249;BME280;38541;48.130;8.378;2023-01-31T02:17:59;93521.34;;;0.01;77.64
52249;BME280;38541;48.130;8.378;2023-01-31T02:20:43;93516.53;;;-0.03;77.86
52249;BME280;38541;48.130;8.378;2023-01-31T02:23:46;93515.38;;;0.00;77.90
52249;BME280;38541;48.130;8.378;2023-01-31T02:26:33;93520.09;;;-0.04;77.39
52249;BME280;38541;48.130;8.378;2023-01-31T02:35:08;93518.03;;;-0.23;77.96
52249;BME280;38541;48.130;8.378;2023-01-31T02:38:11;93520.03;;;-0.34;78.33
52249;BME280;38541;48.130;8.378;2023-01-31T02:41:09;93518.09;;;-0.32;78.10
52249;BME280;38541;48.130;8.378;2023-01-31T02:43:51;93520.03;;;-0.34;78.03
52249;BME280;38541;48.130;8.378;2023-01-31T02:46:46;93509.69;;;-0.49;78.50
52249;BME280;38541;48.130;8.378;2023-01-31T02:49:22;93510.44;;;-0.40;78.44
52249;BME280;38541;48.130;8.378;2023-01-31T02:55:05;93524.91;;;-0.54;78.32
52249;BME280;38541;48.130;8.378;2023-01-31T02:57:53;93526.03;;;-0.56;78.15
52249;BME280;38541;48.130;8.378;2023-01-31T03:00:21;93534.19;;;-0.68;77.81
52249;BME280;38541;48.130;8.378;2023-01-31T03:02:49;93519.41;;;-0.74;78.29
52249;BME280;38541;48.130;8.378;2023-01-31T03:05:18;93529.09;;;-0.76;78.54
52249;BME280;38541;48.130;8.378;2023-01-31T03:07:48;93537.53;;;-0.82;78.71
52249;BME280;38541;48.130;8.378;2023-01-31T03:12:54;93547.03;;;-0.83;79.01
52249;BME280;38541;48.130;8.378;2023-01-31T03:15:51;93551.91;;;-0.88;78.79
52249;BME280;38541;48.130;8.378;2023-01-31T03:18:46;93554.31;;;-0.87;78.74
52249;BME280;38541;48.130;8.378;2023-01-31T03:21:20;93548.06;;;-0.92;78.39
52249;BME280;38541;48.130;8.378;2023-01-31T03:23:51;93541.13;;;-0.92;78.72
52249;BME280;38541;48.130;8.378;2023-01-31T03:26:19;93536.66;;;-0.98;78.77
52249;BME280;38541;48.130;8.378;2023-01-31T03:28:48;93538.91;;;-0.95;78.54
52249;BME280;38541;48.130;8.378;2023-01-31T03:31:29;93537.28;;;-0.96;78.56
52249;BME280;38541;48.130;8.378;2023-01-31T03:34:03;93532.81;;;-1.02;78.48
52249;BME280;38541;48.130;8.378;2023-01-31T03:40:08;93546.69;;;-1.03;78.67
52249;BME280;38541;48.130;8.378;2023-01-31T03:42:50;93544.28;;;-1.05;79.20
52249;BME280;38541;48.130;8.378;2023-01-31T03:47:53;93543.78;;;-1.00;79.87
52249;BME280;38541;48.130;8.378;2023-01-31T03:50:54;93544.75;;;-1.01;80.26
52249;BME280;38541;48.130;8.378;2023-01-31T03:53:36;93547.31;;;-1.01;80.50
52249;BME280;38541;48.130;8.378;2023-01-31T03:56:18;93551.31;;;-0.98;80.17
52249;BME280;38541;48.130;8.378;2023-01-31T03:58:53;93546.13;;;-0.90;80.39
52249;BME280;38541;48.130;8.378;2023-01-31T04:01:25;93545.66;;;-0.94;80.16
52249;BME280;38541;48.130;8.378;2023-01-31T04:04:00;93546.13;;;-0.90;80.16
52249;BME280;38541;48.130;8.378;2023-01-31T04:06:28;93535.97;;;-0.92;80.29
52249;BME280;38541;48.130;8.378;2023-01-31T04:08:56;93538.66;;;-0.85;79.93
52249;BME280;38541;48.130;8.378;2023-01-31T04:11:24;93533.28;;;-0.75;79.83
52249;BME280;38541;48.130;8.378;2023-01-31T04:13:51;93531.59;;;-0.68;79.48
52249;BME280;38541;48.130;8.378;2023-01-31T04:16:17;93531.59;;;-0.68;79.19
52249;BME280;38541;48.130;8.378;2023-01-31T04:18:44;93537.34;;;-0.58;79.45
52249;BME280;38541;48.130;8.378;2023-01-31T04:21:13;93536.00;;;-0.53;79.24
52249;BME280;38541;48.130;8.378;2023-01-31T04:23:39;93536.94;;;-0.46;79.23
52249;BME280;38541;48.130;8.378;2023-01-31T04:26:06;93543.53;;;-0.44;78.96
52249;BME280;38541;48.130;8.378;2023-01-31T04:28:32;93547.81;;;-0.36;78.76
52249;BME280;38541;48.130;8.378;2023-01-31T04:30:58;93544.88;;;-0.33;78.68
52249;BME280;38541;48.130;8.378;2023-01-31T04:33:25;93557.72;;;-0.24;78.39
52249;BME280;38541;48.130;8.378;2023-01-31T04:35:52;93553.00;;;-0.21;78.02
52249;BME280;38541;48.130;8.378;2023-01-31T04:38:18;93549.28;;;-0.18;77.54
52249;BME280;38541;48.130;8.378;2023-01-31T04:40:45;93555.59;;;-0.21;77.84
52249;BME280;38541;48.130;8.378;2023-01-31T04:43:12;93559.97;;;-0.21;78.12
52249;BME280;38541;48.130;8.378;2023-01-31T04:45:38;93567.88;;;-0.23;78.53
52249;BME280;38541;48.130;8.378;2023-01-31T04:48:05;93554.59;;;-0.20;78.40
52249;BME280;38541;48.130;8.378;2023-01-31T04:50:32;93562.94;;;-0.33;78.16
52249;BME280;38541;48.130;8.378;2023-01-31T04:52:59;93563.25;;;-0.27;77.85
52249;BME280;38541;48.130;8.378;2023-01-31T04:55:25;93560.38;;;-0.33;78.07
52249;BME280;38541;48.130;8.378;2023-01-31T04:57:53;93563.66;;;-0.39;78.28
52249;BME280;38541;48.130;8.378;2023-01-31T05:00:19;93565.88;;;-0.36;77.86
52249;BME280;38541;48.130;8.378;2023-01-31T05:02:46;93564.91;;;-0.35;78.31
52249;BME280;38541;48.130;8.378;2023-01-31T05:05:13;93563.50;;;-0.37;78.08
52249;BME280;38541;48.130;8.378;2023-01-31T05:07:39;93564.13;;;-0.35;77.99
52249;BME280;38541;48.130;8.378;2023-01-31T05:10:07;93560.44;;;-0.41;78.04
52249;BME280;38541;48.130;8.378;2023-01-31T05:12:34;93551.25;;;-0.44;77.86
52249;BME280;38541;48.130;8.378;2023-01-31T05:15:01;93557.88;;;-0.41;77.93
52249;BME280;38541;48.130;8.378;2023-01-31T05:17:28;93551.50;;;-0.30;78.17
52249;BME280;38541;48.130;8.378;2023-01-31T05:19:56;93558.53;;;-0.24;77.72
52249;BME280;38541;48.130;8.378;2023-01-31T05:22:22;93561.56;;;-0.20;77.58
52249;BME280;38541;48.130;8.378;2023-01-31T05:24:50;93564.19;;;-0.29;76.91
52249;BME280;38541;48.130;8.378;2023-01-31T05:27:17;93562.28;;;-0.26;76.87
52249;BME280;38541;48.130;8.378;2023-01-31T05:29:44;93558.34;;;-0.22;77.58
52249;BME280;38541;48.130;8.378;2023-01-31T05:32:12;93557.66;;;-0.16;77.28
52249;BME280;38541;48.130;8.378;2023-01-31T05:34:38;93568.34;;;-0.19;77.16
52249;BME280;38541;48.130;8.378;2023-01-31T05:37:05;93561.56;;;-0.20;78.01
52249;BME280;38541;48.130;8.378;2023-01-31T05:39:32;93563.78;;;-0.17;77.55
52249;BME280;38541;48.130;8.378;2023-01-31T05:41:59;93570.22;;;-0.13;77.16
52249;BME280;38541;48.130;8.378;2023-01-31T05:44:25;93570.28;;;-0.21;76.68
52249;BME280;38541;48.130;8.378;2023-01-31T05:46:52;93570.06;;;-0.35;76.19
52249;BME280;38541;48.130;8.378;2023-01-31T05:49:18;93568.81;;;-0.39;76.38
52249;BME280;38541;48.130;8.378;2023-01-31T05:51:45;93563.03;;;-0.41;76.72
52249;BME280;38541;48.130;8.378;2023-01-31T05:54:11;93569.38;;;-0.29;76.62
52249;BME280;38541;48.130;8.378;2023-01-31T05:56:38;93564.84;;;-0.26;76.74
52249;BME280;38541;48.130;8.378;2023-01-31T05:59:05;93571.53;;;-0.17;76.55
52249;BME280;38541;48.130;8.378;2023-01-31T06:01:31;93565.66;;;-0.11;77.03
52249;BME280;38541;48.130;8.378;2023-01-31T06:03:58;93576.72;;;-0.02;77.32
52249;BME280;38541;48.130;8.378;2023-01-31T06:06:25;93579.84;;;-0.07;76.12
52249;BME280;38541;48.130;8.378;2023-01-31T06:08:51;93577.84;;;-0.20;75.77
52249;BME280;38541;48.130;8.378;2023-01-31T06:11:18;93577.97;;;-0.13;76.09
52249;BME280;38541;48.130;8.378;2023-01-31T06:13:44;93581.53;;;-0.14;76.28
52249;BME280;38541;48.130;8.378;2023-01-31T06:16:11;93582.50;;;-0.15;75.27
52249;BME280;38541;48.130;8.378;2023-01-31T06:18:37;93590.59;;;-0.18;75.95
52249;BME280;38541;48.130;8.378;2023-01-31T06:21:04;93582.06;;;-0.19;76.08
52249;BME280;38541;48.130;8.378;2023-01-31T06:23:31;93585.44;;;-0.18;76.15
52249;BME280;38541;48.130;8.378;2023-01-31T06:26:00;93584.72;;;-0.12;76.70
52249;BME280;38541;48.130;8.378;2023-01-31T06:28:26;93584.91;;;-0.13;75.84
52249;BME280;38541;48.130;8.378;2023-01-31T06:30:53;93581.34;;;-0.12;76.09
52249;BME280;38541;48.130;8.378;2023-01-31T06:33:20;93594.78;;;-0.17;75.38
52249;BME280;38541;48.130;8.378;2023-01-31T06:35:49;93600.81;;;-0.25;75.38
52249;BME280;38541;48.130;8.378;2023-01-31T06:38:16;93606.97;;;-0.26;75.82
52249;BME280;38541;48.130;8.378;2023-01-31T06:40:42;93603.13;;;-0.30;75.19
52249;BME280;38541;48.130;8.378;2023-01-31T06:43:09;93609.00;;;-0.36;75.42
52249;BME280;38541;48.130;8.378;2023-01-31T06:45:35;93601.13;;;-0.43;75.48
52249;BME280;38541;48.130;8.378;2023-01-31T06:48:03;93611.16;;;-0.48;75.60
52249;BME280;38541;48.130;8.378;2023-01-31T06:50:29;93605.06;;;-0.55;75.07
52249;BME280;38541;48.130;8.378;2023-01-31T06:52:56;93611.91;;;-0.63;75.11
52249;BME280;38541;48.130;8.378;2023-01-31T06:55:24;93626.28;;;-0.68;75.57
52249;BME280;38541;48.130;8.378;2023-01-31T06:57:51;93619.06;;;-0.73;75.65
52249;BME280;38541;48.130;8.378;2023-01-31T07:00:18;93614.56;;;-0.79;75.11
52249;BME280;38541;48.130;8.378;2023-01-31T07:02:45;93608.31;;;-0.85;75.38
52249;BME280;38541;48.130;8.378;2023-01-31T07:05:13;93608.47;;;-0.87;75.79
52249;BME280;38541;48.130;8.378;2023-01-31T07:07:39;93608.81;;;-0.90;75.77
52249;BME280;38541;48.130;8.378;2023-01-31T07:10:06;93605.13;;;-0.95;75.45
52249;BME280;38541;48.130;8.378;2023-01-31T07:12:33;93608.88;;;-0.98;75.36
52249;BME280;38541;48.130;8.378;2023-01-31T07:14:59;93613.41;;;-1.08;75.12
52249;BME280;38541;48.130;8.378;2023-01-31T07:17:26;93614.09;;;-1.15;74.85
52249;BME280;38541;48.130;8.378;2023-01-31T07:19:53;93613.00;;;-1.20;74.21
52249;BME280;38541;48.130;8.378;2023-01-31T07:22:19;93620.91;;;-1.22;74.25
52249;BME280;38541;48.130;8.378;2023-01-31T07:24:46;93603.50;;;-1.20;74.89
52249;BME280;38541;48.130;8.378;2023-01-31T07:27:14;93601.97;;;-1.37;74.25
52249;BME280;38541;48.130;8.378;2023-01-31T07:29:40;93604.22;;;-1.42;74.17
52249;BME280;38541;48.130;8.378;2023-01-31T07:32:07;93598.13;;;-1.41;73.90
52249;BME280;38541;48.130;8.378;2023-01-31T07:34:34;93594.56;;;-1.49;74.11
52249;BME280;38541;48.130;8.378;2023-01-31T07:37:00;93591.22;;;-1.49;74.40
52249;BME280;38541;48.130;8.378;2023-01-31T07:39:27;93590.44;;;-1.58;73.41
52249;BME280;38541;48.130;8.378;2023-01-31T07:41:55;93606.38;;;-1.71;73.26
52249;BME280;38541;48.130;8.378;2023-01-31T07:44:23;93613.00;;;-1.68;73.59
52249;BME280;38541;48.130;8.378;2023-01-31T07:46:49;93620.13;;;-1.79;73.45
52249;BME280;38541;48.130;8.378;2023-01-31T07:49:17;93620.75;;;-1.85;74.51
52249;BME280;38541;48.130;8.378;2023-01-31T07:51:43;93615.59;;;-1.77;74.51
52249;BME280;38541;48.130;8.378;2023-01-31T07:54:10;93615.91;;;-1.72;74.54
52249;BME280;38541;48.130;8.378;2023-01-31T07:56:37;93615.22;;;-1.65;74.18
52249;BME280;38541;48.130;8.378;2023-01-31T07:59:03;93604.59;;;-1.62;74.91
52249;BME280;38541;48.130;8.378;2023-01-31T08:01:30;93609.91;;;-1.55;75.43
52249;BME280;38541;48.130;8.378;2023-01-31T08:04:16;93616.00;;;-1.48;75.39
52249;BME280;38541;48.130;8.378;2023-01-31T08:06:49;93625.34;;;-1.47;74.79
52249;BME280;38541;48.130;8.378;2023-01-31T08:09:16;93621.16;;;-1.48;74.77
52249;BME280;38541;48.130;8.378;2023-01-31T08:11:42;93634.06;;;-1.48;74.17
52249;BME280;38541;48.130;8.378;2023-01-31T08:14:09;93630.00;;;-1.51;73.78
52249;BME280;38541;48.130;8.378;2023-01-31T08:16:36;93637.13;;;-1.53;74.11
52249;BME280;38541;48.130;8.378;2023-01-31T08:19:03;93642.13;;;-1.51;74.85
52249;BME280;38541;48.130;8.378;2023-01-31T08:21:29;93637.91;;;-1.44;75.17
52249;BME280;38541;48.130;8.378;2023-01-31T08:23:56;93636.72;;;-1.33;75.72
52249;BME280;38541;48.130;8.378;2023-01-31T08:26:22;93635.72;;;-1.24;75.72
52249;BME280;38541;48.130;8.378;2023-01-31T08:28:50;93640.88;;;-1.16;75.09
52249;BME280;38541;48.130;8.378;2023-01-31T08:31:24;93634.25;;;-1.10;74.89
52249;BME280;38541;48.130;8.378;2023-01-31T08:33:51;93634.06;;;-1.08;74.93
52249;BME280;38541;48.130;8.378;2023-01-31T08:36:25;93639.53;;;-1.03;74.93
52249;BME280;38541;48.130;8.378;2023-01-31T08:38:52;93633.22;;;-1.01;74.58
52249;BME280;38541;48.130;8.378;2023-01-31T08:41:22;93625.97;;;-0.97;75.02
52249;BME280;38541;48.130;8.378;2023-01-31T08:43:49;93632.44;;;-1.01;74.75
52249;BME280;38541;48.130;8.378;2023-01-31T08:46:28;93621.44;;;-0.95;74.55
52249;BME280;38541;48.130;8.378;2023-01-31T08:48:56;93618.56;;;-1.00;75.03
52249;BME280;38541;48.130;8.378;2023-01-31T08:51:23;93619.13;;;-0.90;75.76
52249;BME280;38541;48.130;8.378;2023-01-31T08:53:50;93616.06;;;-0.85;75.97
52249;BME280;38541;48.130;8.378;2023-01-31T08:56:16;93612.16;;;-0.81;75.93
52249;BME280;38541;48.130;8.378;2023-01-31T08:58:43;93604.66;;;-0.67;75.48
52249;BME280;38541;48.130;8.378;2023-01-31T09:01:15;93597.97;;;-0.53;75.23
52249;BME280;38541;48.130;8.378;2023-01-31T09:03:43;93594.06;;;-0.49;74.39
52249;BME280;38541;48.130;8.378;2023-01-31T09:06:13;93592.06;;;-0.39;74.03
52249;BME280;38541;48.130;8.378;2023-01-31T09:08:40;93597.84;;;-0.37;73.76
52249;BME280;38541;48.130;8.378;2023-01-31T09:11:07;93589.84;;;-0.27;73.88
52249;BME280;38541;48.130;8.378;2023-01-31T09:13:34;93588.00;;;-0.18;73.45
52249;BME280;38541;48.130;8.378;2023-01-31T09:16:03;93587.94;;;-0.10;73.81
52249;BME280;38541;48.130;8.378;2023-01-31T09:18:32;93585.28;;;-0.02;73.01
52249;BME280;38541;48.130;8.378;2023-01-31T09:21:06;93583.91;;;0.11;72.99
52249;BME280;38541;48.130;8.378;2023-01-31T09:23:33;93590.66;;;0.12;73.00
52249;BME280;38541;48.130;8.378;2023-01-31T09:26:00;93595.69;;;0.28;72.72
52249;BME280;38541;48.130;8.378;2023-01-31T09:28:27;93584.97;;;0.32;72.53
52249;BME280;38541;48.130;8.378;2023-01-31T09:30:54;93584.00;;;0.48;72.75
52249;BME280;38541;48.130;8.378;2023-01-31T09:33:21;93588.28;;;0.55;72.13
52249;BME280;38541;48.130;8.378;2023-01-31T09:36:05;93597.38;;;0.51;71.29
52249;BME280;38541;48.130;8.378;2023-01-31T09:38:33;93595.75;;;0.65;71.40
52249;BME280;38541;48.130;8.378;2023-01-31T09:41:03;93592.97;;;0.97;71.05
52249;BME280;38541;48.130;8.378;2023-01-31T09:43:40;93595.66;;;1.25;70.58
52249;BME280;38541;48.130;8.378;2023-01-31T09:46:14;93599.94;;;1.55;70.24
52249;BME280;38541;48.130;8.378;2023-01-31T09:48:46;93594.81;;;1.83;69.38
52249;BME280;38541;48.130;8.378;2023-01-31T09:51:15;93595.41;;;1.85;67.69
52249;BME280;38541;48.130;8.378;2023-01-31T09:53:43;93596.13;;;1.73;67.71
52249;BME280;38541;48.130;8.378;2023-01-31T09:56:40;93592.16;;;1.77;67.73
52249;BME280;38541;48.130;8.378;2023-01-31T09:59:20;93589.06;;;1.88;66.92
52249;BME280;38541;48.130;8.378;2023-01-31T10:10:23;93586.00;;;2.28;66.69
52249;BME280;38541;48.130;8.378;2023-01-31T10:12:59;93576.66;;;2.40;66.30
52249;BME280;38541;48.130;8.378;2023-01-31T10:15:37;93579.56;;;2.59;66.47
52249;BME280;38541;48.130;8.378;2023-01-31T10:18:25;93588.38;;;2.65;65.16
52249;BME280;38541;48.130;8.378;2023-01-31T10:21:06;93596.97;;;2.65;65.67
52249;BME280;38541;48.130;8.378;2023-01-31T10:23:45;93591.94;;;2.57;65.18
52249;BME280;38541;48.130;8.378;2023-01-31T10:26:29;93591.44;;;2.40;64.31
52249;BME280;38541;48.130;8.378;2023-01-31T10:29:20;93582.38;;;2.58;65.19
52249;BME280;38541;48.130;8.378;2023-01-31T10:31:57;93577.78;;;3.08;63.45
52249;BME280;38541;48.130;8.378;2023-01-31T10:34:29;93580.25;;;3.30;62.67
52249;BME280;38541;48.130;8.378;2023-01-31T10:37:08;93581.84;;;3.24;61.03
52249;BME280;38541;48.130;8.378;2023-01-31T10:39:45;93579.28;;;2.82;61.57
52249;BME280;38541;48.130;8.378;2023-01-31T10:42:33;93567.63;;;2.65;61.86
52249;BME280;38541;48.130;8.378;2023-01-31T10:45:15;93565.22;;;2.63;62.05
52249;BME280;38541;48.130;8.378;2023-01-31T10:47:51;93570.16;;;2.51;62.29
52249;BME280;38541;48.130;8.378;2023-01-31T10:50:19;93572.09;;;2.42;61.85
52249;BME280;38541;48.130;8.378;2023-01-31T10:55:54;93571.09;;;3.48;60.71
52249;BME280;38541;48.130;8.378;2023-01-31T10:58:25;93563.91;;;3.43;59.69
52249;BME280;38541;48.130;8.378;2023-01-31T11:00:52;93561.06;;;3.31;59.61
52249;BME280;38541;48.130;8.378;2023-01-31T11:03:18;93566.25;;;3.31;60.12
52249;BME280;38541;48.130;8.378;2023-01-31T11:05:49;93554.56;;;3.82;58.64
52249;BME280;38541;48.130;8.378;2023-01-31T11:08:40;93549.38;;;3.82;59.13
52249;BME280;38541;48.130;8.378;2023-01-31T11:11:13;93544.34;;;3.81;58.61
52249;BME280;38541;48.130;8.378;2023-01-31T11:13:55;93547.16;;;3.66;59.52
52249;BME280;38541;48.130;8.378;2023-01-31T11:16:22;93560.25;;;3.24;60.57
52249;BME280;38541;48.130;8.378;2023-01-31T11:18:50;93559.94;;;2.92;60.60
52249;BME280;38541;48.130;8.378;2023-01-31T11:21:19;93554.72;;;2.78;59.86
52249;BME280;38541;48.130;8.378;2023-01-31T11:23:47;93563.38;;;2.99;59.84
52249;BME280;38541;48.130;8.378;2023-01-31T11:26:25;93551.41;;;2.98;59.58
52249;BME280;38541;48.130;8.378;2023-01-31T11:28:52;93549.47;;;3.27;60.22
52249;BME280;38541;48.130;8.378;2023-01-31T11:31:25;93554.72;;;3.67;59.89
52249;BME280;38541;48.130;8.378;2023-01-31T11:33:59;93557.94;;;3.69;59.08
52249;BME280;38541;48.130;8.378;2023-01-31T11:36:31;93548.38;;;3.90;58.59
52249;BME280;38541;48.130;8.378;2023-01-31T11:38:58;93558.75;;;3.83;58.48
52249;BME280;38541;48.130;8.378;2023-01-31T11:41:35;93564.56;;;3.99;59.80
52249;BME280;38541;48.130;8.378;2023-01-31T11:49:21;93557.31;;;4.41;55.55
52249;BME280;38541;48.130;8.378;2023-01-31T11:51:49;93551.47;;;4.53;55.43
52249;BME280;38541;48.130;8.378;2023-01-31T11:54:19;93557.91;;;4.37;55.56
52249;BME280;38541;48.130;8.378;2023-01-31T11:56:47;93553.16;;;3.93;56.74
52249;BME280;38541;48.130;8.378;2023-01-31T11:59:18;93558.34;;;4.20;56.88
52249;BME280;38541;48.130;8.378;2023-01-31T12:01:48;93557.56;;;3.73;57.09
52249;BME280;38541;48.130;8.378;2023-01-31T12:04:29;93533.16;;;3.67;58.80
52249;BME280;38541;48.130;8.378;2023-01-31T12:07:04;93540.75;;;3.82;58.11
52249;BME280;38541;48.130;8.378;2023-01-31T12:09:42;93548.34;;;3.56;58.47
52249;BME280;38541;48.130;8.378;2023-01-31T12:12:30;93520.75;;;3.62;58.77
52249;BME280;38541;48.130;8.378;2023-01-31T12:15:02;93509.34;;;3.50;59.03
52249;BME280;38541;48.130;8.378;2023-01-31T12:17:30;93525.44;;;2.91;60.75
52249;BME280;38541;48.130;8.378;2023-01-31T12:20:13;93512.22;;;2.79;61.12
52249;BME280;38541;48.130;8.378;2023-01-31T12:23:18;93505.91;;;3.09;60.76
52249;BME280;38541;48.130;8.378;2023-01-31T12:26:11;93500.63;;;2.82;61.83
52249;BME280;38541;48.130;8.378;2023-01-31T12:34:16;93481.38;;;3.38;59.74
52249;BME280;38541;48.130;8.378;2023-01-31T12:43:00;93487.19;;;3.67;59.19
52249;BME280;38541;48.130;8.378;2023-01-31T12:45:37;93492.56;;;3.39;60.32
52249;BME280;38541;48.130;8.378;2023-01-31T12:48:12;93488.75;;;3.14;60.30
52249;BME280;38541;48.130;8.378;2023-01-31T12:53:53;93477.59;;;3.54;61.13
52249;BME280;38541;48.130;8.378;2023-01-31T12:56:50;93478.56;;;3.13;60.76
52249;BME280;38541;48.130;8.378;2023-01-31T13:02:01;93454.00;;;3.09;61.09
52249;BME280;38541;48.130;8.378;2023-01-31T13:04:51;93468.16;;;3.06;61.80
52249;BME280;38541;48.130;8.378;2023-01-31T13:07:37;93476.94;;;3.05;62.29
52249;BME280;38541;48.130;8.378;2023-01-31T13:10:25;93474.72;;;2.95;63.22
52249;BME280;38541;48.130;8.378;2023-01-31T13:12:54;93472.72;;;2.97;63.12
52249;BME280;38541;48.130;8.378;2023-01-31T13:15:31;93485.31;;;3.07;62.55
52249;BME280;38541;48.130;8.378;2023-01-31T13:18:04;93483.94;;;3.11;63.36
52249;BME280;38541;48.130;8.378;2023-01-31T13:20:42;93483.38;;;3.30;62.56
52249;BME280;38541;48.130;8.378;2023-01-31T13:23:37;93486.72;;;3.03;63.21
52249;BME280;38541;48.130;8.378;2023-01-31T13:26:21;93478.25;;;2.74;64.06
52249;BME280;38541;48.130;8.378;2023-01-31T13:29:10;93479.81;;;2.62;64.66
52249;BME280;38541;48.130;8.378;2023-01-31T13:31:48;93469.00;;;2.51;64.92
52249;BME280;38541;48.130;8.378;2023-01-31T13:34:25;93465.41;;;2.52;64.83
52249;BME280;38541;48.130;8.378;2023-01-31T13:36:57;93454.66;;;2.62;64.76
52249;BME280;38541;48.130;8.378;2023-01-31T13:39:32;93449.72;;;2.74;64.42
52249;BME280;38541;48.130;8.378;2023-01-31T13:42:00;93454.69;;;2.69;64.53
52249;BME280;38541;48.130;8.378;2023-01-31T13:44:27;93466.00;;;2.54;65.34
52249;BME280;38541;48.130;8.378;2023-01-31T13:46:57;93444.91;;;2.71;66.22
52249;BME280;38541;48.130;8.378;2023-01-31T13:49:44;93456.38;;;2.97;63.85
52249;BME280;38541;48.130;8.378;2023-01-31T13:52:26;93441.97;;;2.88;64.07
52249;BME280;38541;48.130;8.378;2023-01-31T13:55:02;93430.34;;;2.70;64.66
52249;BME280;38541;48.130;8.378;2023-01-31T13:57:40;93411.84;;;2.93;63.58
52249;BME280;38541;48.130;8.378;2023-01-31T14:00:44;93421.16;;;2.74;64.85
52249;BME280;38541;48.130;8.378;2023-01-31T14:03:17;93422.63;;;2.97;64.52
52249;BME280;38541;48.130;8.378;2023-01-31T14:05:57;93425.66;;;3.21;63.23
52249;BME280;38541;48.130;8.378;2023-01-31T14:08:26;93425.81;;;3.66;62.24
52249;BME280;38541;48.130;8.378;2023-01-31T14:10:54;93423.19;;;3.80;62.48
52249;BME280;38541;48.130;8.378;2023-01-31T14:15:59;93405.66;;;3.55;62.68
52249;BME280;38541;48.130;8.378;2023-01-31T14:18:43;93411.44;;;3.57;62.64
52249;BME280;38541;48.130;8.378;2023-01-31T14:23:56;93422.44;;;3.52;62.86
52249;BME280;38541;48.130;8.378;2023-01-31T14:29:09;93436.03;;;3.61;61.64
52249;BME280;38541;48.130;8.378;2023-01-31T14:31:41;93428.41;;;3.80;61.75
52249;BME280;38541;48.130;8.378;2023-01-31T14:34:17;93423.22;;;3.66;60.10
52249;BME280;38541;48.130;8.378;2023-01-31T14:36:59;93427.41;;;2.93;61.62